sensor_id;sensor_type;location;lat;lon;timestamp;P1;durP1;ratioP1;P2;durP2;ratioP2
72676;SDS011;60755;51.374;10.662;2023-08-30T00:01:54;8.73;;;5.50;;
72676;SDS011;60755;51.374;10.662;2023-08-30T00:04:22;5.70;;;5.03;;
72676;SDS011;60755;51.374;10.662;2023-08-30T00:06:50;8.03;;;5.60;;
72676;SDS011;60755;51.374;10.662;2023-08-30T00:09:17;7.33;;;5.80;;
72676;SDS011;60755;51.374;10.662;2023-08-30T00:11:46;9.50;;;5.40;;
72676;SDS011;60755;51.374;10.662;2023-08-30T00:14:14;7.43;;;5.27;;
72676;SDS011;60755;51.374;10.662;2023-08-30T00:16:41;7.30;;;6.27;;
72676;SDS011;60755;51.374;10.662;2023-08-30T00:19:09;7.13;;;5.83;;
72676;SDS011;60755;51.374;10.662;2023-08-30T00:21:36;5.13;;;4.63;;
72676;SDS011;60755;51.374;10.662;2023-08-30T00:24:04;4.50;;;4.13;;
72676;SDS011;60755;51.374;10.662;2023-08-30T00:26:32;4.53;;;4.13;;
72676;SDS011;60755;51.374;10.662;2023-08-30T00:29:04;5.43;;;3.80;;
72676;SDS011;60755;51.374;10.662;2023-08-30T00:31:31;6.17;;;3.90;;
72676;SDS011;60755;51.374;10.662;2023-08-30T00:33:59;4.17;;;3.93;;
72676;SDS011;60755;51.374;10.662;2023-08-30T00:36:26;4.10;;;3.90;;
72676;SDS011;60755;51.374;10.662;2023-08-30T00:38:53;5.47;;;4.27;;
72676;SDS011;60755;51.374;10.662;2023-08-30T00:41:21;4.03;;;3.53;;
72676;SDS011;60755;51.374;10.662;2023-08-30T00:43:49;3.77;;;3.57;;
72676;SDS011;60755;51.374;10.662;2023-08-30T00:46:18;4.10;;;3.80;;
72676;SDS011;60755;51.374;10.662;2023-08-30T00:48:47;4.17;;;3.80;;
72676;SDS011;60755;51.374;10.662;2023-08-30T00:51:14;7.17;;;3.77;;
72676;SDS011;60755;51.374;10.662;2023-08-30T00:53:42;3.80;;;3.60;;
72676;SDS011;60755;51.374;10.662;2023-08-30T00:56:11;5.17;;;3.70;;
72676;SDS011;60755;51.374;10.662;2023-08-30T00:58:38;5.03;;;3.83;;
72676;SDS011;60755;51.374;10.662;2023-08-30T01:01:06;7.00;;;3.57;;
72676;SDS011;60755;51.374;10.662;2023-08-30T01:03:38;5.83;;;4.33;;
72676;SDS011;60755;51.374;10.662;2023-08-30T01:06:05;4.60;;;4.20;;
72676;SDS011;60755;51.374;10.662;2023-08-30T01:08:33;3.60;;;3.30;;
72676;SDS011;60755;51.374;10.662;2023-08-30T01:11:05;7.03;;;3.60;;
72676;SDS011;60755;51.374;10.662;2023-08-30T01:13:42;3.80;;;3.50;;
72676;SDS011;60755;51.374;10.662;2023-08-30T01:16:18;4.00;;;3.37;;
72676;SDS011;60755;51.374;10.662;2023-08-30T01:18:48;3.67;;;3.40;;
72676;SDS011;60755;51.374;10.662;2023-08-30T01:21:32;3.50;;;3.40;;
72676;SDS011;60755;51.374;10.662;2023-08-30T01:24:13;4.13;;;3.80;;
72676;SDS011;60755;51.374;10.662;2023-08-30T01:26:59;3.93;;;3.73;;
72676;SDS011;60755;51.374;10.662;2023-08-30T01:29:35;4.00;;;3.80;;
72676;SDS011;60755;51.374;10.662;2023-08-30T01:32:04;4.90;;;3.87;;
72676;SDS011;60755;51.374;10.662;2023-08-30T01:34:35;5.10;;;3.70;;
72676;SDS011;60755;51.374;10.662;2023-08-30T01:37:03;4.10;;;3.70;;
72676;SDS011;60755;51.374;10.662;2023-08-30T01:39:34;6.50;;;3.50;;
72676;SDS011;60755;51.374;10.662;2023-08-30T01:42:05;3.87;;;3.40;;
72676;SDS011;60755;51.374;10.662;2023-08-30T01:44:33;5.50;;;4.40;;
72676;SDS011;60755;51.374;10.662;2023-08-30T01:47:01;4.23;;;3.80;;
72676;SDS011;60755;51.374;10.662;2023-08-30T01:49:30;4.00;;;3.70;;
72676;SDS011;60755;51.374;10.662;2023-08-30T01:51:58;4.27;;;3.97;;
72676;SDS011;60755;51.374;10.662;2023-08-30T01:54:27;4.27;;;3.87;;
72676;SDS011;60755;51.374;10.662;2023-08-30T01:56:55;4.33;;;3.60;;
72676;SDS011;60755;51.374;10.662;2023-08-30T01:59:25;5.00;;;3.80;;
72676;SDS011;60755;51.374;10.662;2023-08-30T02:01:52;4.23;;;3.87;;
72676;SDS011;60755;51.374;10.662;2023-08-30T02:04:21;4.67;;;4.37;;
72676;SDS011;60755;51.374;10.662;2023-08-30T02:06:57;4.27;;;3.77;;
72676;SDS011;60755;51.374;10.662;2023-08-30T02:09:29;7.30;;;4.00;;
72676;SDS011;60755;51.374;10.662;2023-08-30T02:12:07;4.40;;;4.20;;
72676;SDS011;60755;51.374;10.662;2023-08-30T02:14:41;3.90;;;3.70;;
72676;SDS011;60755;51.374;10.662;2023-08-30T02:17:13;4.10;;;3.73;;
72676;SDS011;60755;51.374;10.662;2023-08-30T02:19:41;5.43;;;4.70;;
72676;SDS011;60755;51.374;10.662;2023-08-30T02:22:09;4.77;;;4.27;;
72676;SDS011;60755;51.374;10.662;2023-08-30T02:24:37;7.07;;;4.70;;
72676;SDS011;60755;51.374;10.662;2023-08-30T02:27:05;4.80;;;4.50;;
72676;SDS011;60755;51.374;10.662;2023-08-30T02:29:33;4.53;;;4.23;;
72676;SDS011;60755;51.374;10.662;2023-08-30T02:32:01;4.70;;;4.20;;
72676;SDS011;60755;51.374;10.662;2023-08-30T02:34:29;4.40;;;4.10;;
72676;SDS011;60755;51.374;10.662;2023-08-30T02:36:56;5.07;;;4.60;;
72676;SDS011;60755;51.374;10.662;2023-08-30T02:39:24;6.53;;;4.43;;
72676;SDS011;60755;51.374;10.662;2023-08-30T02:41:51;5.30;;;4.37;;
72676;SDS011;60755;51.374;10.662;2023-08-30T02:44:20;9.70;;;8.70;;
72676;SDS011;60755;51.374;10.662;2023-08-30T02:46:47;7.17;;;5.37;;
72676;SDS011;60755;51.374;10.662;2023-08-30T02:49:16;6.83;;;6.13;;
72676;SDS011;60755;51.374;10.662;2023-08-30T02:51:44;5.83;;;5.43;;
72676;SDS011;60755;51.374;10.662;2023-08-30T02:54:12;5.27;;;4.87;;
72676;SDS011;60755;51.374;10.662;2023-08-30T02:56:39;6.13;;;5.53;;
72676;SDS011;60755;51.374;10.662;2023-08-30T02:59:07;5.40;;;5.00;;
72676;SDS011;60755;51.374;10.662;2023-08-30T03:01:35;6.20;;;5.70;;
72676;SDS011;60755;51.374;10.662;2023-08-30T03:04:04;8.20;;;5.53;;
72676;SDS011;60755;51.374;10.662;2023-08-30T03:06:33;6.37;;;5.10;;
72676;SDS011;60755;51.374;10.662;2023-08-30T03:09:02;5.47;;;5.07;;
72676;SDS011;60755;51.374;10.662;2023-08-30T03:11:33;8.63;;;5.03;;
72676;SDS011;60755;51.374;10.662;2023-08-30T03:14:01;4.97;;;4.60;;
72676;SDS011;60755;51.374;10.662;2023-08-30T03:16:29;5.83;;;5.20;;
72676;SDS011;60755;51.374;10.662;2023-08-30T03:18:57;6.53;;;5.20;;
72676;SDS011;60755;51.374;10.662;2023-08-30T03:21:24;5.57;;;5.00;;
72676;SDS011;60755;51.374;10.662;2023-08-30T03:23:53;7.97;;;7.10;;
72676;SDS011;60755;51.374;10.662;2023-08-30T03:26:20;6.67;;;6.00;;
72676;SDS011;60755;51.374;10.662;2023-08-30T03:28:47;17.40;;;9.90;;
72676;SDS011;60755;51.374;10.662;2023-08-30T03:31:15;10.33;;;8.83;;
72676;SDS011;60755;51.374;10.662;2023-08-30T03:33:44;11.67;;;8.20;;
72676;SDS011;60755;51.374;10.662;2023-08-30T03:36:13;12.00;;;8.93;;
72676;SDS011;60755;51.374;10.662;2023-08-30T03:38:41;10.03;;;7.70;;
72676;SDS011;60755;51.374;10.662;2023-08-30T03:41:12;9.17;;;7.50;;
72676;SDS011;60755;51.374;10.662;2023-08-30T03:43:41;7.53;;;6.13;;
72676;SDS011;60755;51.374;10.662;2023-08-30T03:46:09;6.83;;;6.20;;
72676;SDS011;60755;51.374;10.662;2023-08-30T03:48:37;8.13;;;6.00;;
72676;SDS011;60755;51.374;10.662;2023-08-30T03:51:04;7.37;;;6.50;;
72676;SDS011;60755;51.374;10.662;2023-08-30T03:53:32;7.30;;;6.60;;
72676;SDS011;60755;51.374;10.662;2023-08-30T03:56:00;7.27;;;6.20;;
72676;SDS011;60755;51.374;10.662;2023-08-30T03:58:28;8.60;;;6.80;;
72676;SDS011;60755;51.374;10.662;2023-08-30T04:00:56;8.73;;;6.50;;
72676;SDS011;60755;51.374;10.662;2023-08-30T04:03:23;9.43;;;6.00;;
72676;SDS011;60755;51.374;10.662;2023-08-30T04:05:54;8.30;;;6.57;;
72676;SDS011;60755;51.374;10.662;2023-08-30T04:08:22;8.43;;;6.20;;
72676;SDS011;60755;51.374;10.662;2023-08-30T04:10:51;5.77;;;5.37;;
72676;SDS011;60755;51.374;10.662;2023-08-30T04:13:19;6.03;;;5.50;;
72676;SDS011;60755;51.374;10.662;2023-08-30T04:15:48;9.20;;;6.10;;
72676;SDS011;60755;51.374;10.662;2023-08-30T04:18:16;6.00;;;5.33;;
72676;SDS011;60755;51.374;10.662;2023-08-30T04:20:44;6.33;;;5.67;;
72676;SDS011;60755;51.374;10.662;2023-08-30T04:23:11;7.33;;;6.10;;
72676;SDS011;60755;51.374;10.662;2023-08-30T04:25:40;6.50;;;5.90;;
72676;SDS011;60755;51.374;10.662;2023-08-30T04:28:07;6.07;;;5.57;;
72676;SDS011;60755;51.374;10.662;2023-08-30T04:30:35;6.00;;;5.53;;
72676;SDS011;60755;51.374;10.662;2023-08-30T04:33:05;5.97;;;5.47;;
72676;SDS011;60755;51.374;10.662;2023-08-30T04:35:33;7.97;;;5.43;;
72676;SDS011;60755;51.374;10.662;2023-08-30T04:38:00;5.50;;;4.97;;
72676;SDS011;60755;51.374;10.662;2023-08-30T04:40:28;7.43;;;5.30;;
72676;SDS011;60755;51.374;10.662;2023-08-30T04:42:56;5.80;;;5.30;;
72676;SDS011;60755;51.374;10.662;2023-08-30T04:45:23;5.80;;;5.40;;
72676;SDS011;60755;51.374;10.662;2023-08-30T04:47:50;5.53;;;5.10;;
72676;SDS011;60755;51.374;10.662;2023-08-30T04:50:19;6.20;;;5.60;;
72676;SDS011;60755;51.374;10.662;2023-08-30T04:52:47;10.77;;;5.40;;
72676;SDS011;60755;51.374;10.662;2023-08-30T04:55:14;7.57;;;4.90;;
72676;SDS011;60755;51.374;10.662;2023-08-30T04:57:41;6.63;;;4.50;;
72676;SDS011;60755;51.374;10.662;2023-08-30T05:00:12;5.33;;;4.67;;
72676;SDS011;60755;51.374;10.662;2023-08-30T05:02:40;4.77;;;4.47;;
72676;SDS011;60755;51.374;10.662;2023-08-30T05:05:10;7.03;;;4.70;;
72676;SDS011;60755;51.374;10.662;2023-08-30T05:07:38;4.47;;;4.17;;
72676;SDS011;60755;51.374;10.662;2023-08-30T05:10:06;4.73;;;4.43;;
72676;SDS011;60755;51.374;10.662;2023-08-30T05:12:34;4.53;;;4.10;;
72676;SDS011;60755;51.374;10.662;2023-08-30T05:15:01;5.30;;;4.87;;
72676;SDS011;60755;51.374;10.662;2023-08-30T05:17:29;4.40;;;4.20;;
72676;SDS011;60755;51.374;10.662;2023-08-30T05:19:57;5.90;;;5.50;;
72676;SDS011;60755;51.374;10.662;2023-08-30T05:22:24;5.20;;;4.80;;
72676;SDS011;60755;51.374;10.662;2023-08-30T05:24:53;4.30;;;4.10;;
72676;SDS011;60755;51.374;10.662;2023-08-30T05:27:19;4.10;;;3.83;;
72676;SDS011;60755;51.374;10.662;2023-08-30T05:29:47;4.40;;;4.10;;
72676;SDS011;60755;51.374;10.662;2023-08-30T05:32:14;3.60;;;3.40;;
72676;SDS011;60755;51.374;10.662;2023-08-30T05:35:00;2.83;;;2.63;;
72676;SDS011;60755;51.374;10.662;2023-08-30T05:37:47;2.90;;;2.78;;
72676;SDS011;60755;51.374;10.662;2023-08-30T05:40:39;2.80;;;2.70;;
72676;SDS011;60755;51.374;10.662;2023-08-30T05:43:08;3.05;;;2.80;;
72676;SDS011;60755;51.374;10.662;2023-08-30T05:45:35;2.40;;;2.30;;
72676;SDS011;60755;51.374;10.662;2023-08-30T05:48:02;2.10;;;2.10;;
72676;SDS011;60755;51.374;10.662;2023-08-30T05:50:30;2.72;;;2.58;;
72676;SDS011;60755;51.374;10.662;2023-08-30T05:52:57;2.50;;;2.50;;
72676;SDS011;60755;51.374;10.662;2023-08-30T05:55:24;2.88;;;2.78;;
72676;SDS011;60755;51.374;10.662;2023-08-30T05:57:53;4.40;;;2.20;;
72676;SDS011;60755;51.374;10.662;2023-08-30T06:00:21;8.48;;;2.83;;
72676;SDS011;60755;51.374;10.662;2023-08-30T06:02:48;3.95;;;2.90;;
72676;SDS011;60755;51.374;10.662;2023-08-30T06:05:16;3.80;;;2.70;;
72676;SDS011;60755;51.374;10.662;2023-08-30T06:07:44;2.30;;;2.20;;
72676;SDS011;60755;51.374;10.662;2023-08-30T06:10:12;3.00;;;2.40;;
72676;SDS011;60755;51.374;10.662;2023-08-30T06:12:39;2.53;;;2.42;;
72676;SDS011;60755;51.374;10.662;2023-08-30T06:15:07;2.30;;;2.17;;
72676;SDS011;60755;51.374;10.662;2023-08-30T06:17:35;4.72;;;2.40;;
72676;SDS011;60755;51.374;10.662;2023-08-30T06:20:02;3.30;;;3.20;;
72676;SDS011;60755;51.374;10.662;2023-08-30T06:22:30;3.00;;;2.80;;
72676;SDS011;60755;51.374;10.662;2023-08-30T06:24:57;2.90;;;2.50;;
72676;SDS011;60755;51.374;10.662;2023-08-30T06:27:23;3.03;;;2.40;;
72676;SDS011;60755;51.374;10.662;2023-08-30T06:29:50;2.78;;;2.58;;
72676;SDS011;60755;51.374;10.662;2023-08-30T06:32:19;2.50;;;2.40;;
72676;SDS011;60755;51.374;10.662;2023-08-30T06:34:46;4.30;;;2.92;;
72676;SDS011;60755;51.374;10.662;2023-08-30T06:37:13;6.18;;;3.00;;
72676;SDS011;60755;51.374;10.662;2023-08-30T06:39:40;4.03;;;3.25;;
72676;SDS011;60755;51.374;10.662;2023-08-30T06:42:07;3.80;;;3.13;;
72676;SDS011;60755;51.374;10.662;2023-08-30T06:44:34;3.15;;;2.88;;
72676;SDS011;60755;51.374;10.662;2023-08-30T06:47:01;2.53;;;2.45;;
72676;SDS011;60755;51.374;10.662;2023-08-30T06:49:29;4.47;;;3.00;;
72676;SDS011;60755;51.374;10.662;2023-08-30T06:51:57;2.45;;;2.45;;
72676;SDS011;60755;51.374;10.662;2023-08-30T06:54:24;2.55;;;2.42;;
72676;SDS011;60755;51.374;10.662;2023-08-30T06:56:58;2.90;;;2.70;;
72676;SDS011;60755;51.374;10.662;2023-08-30T06:59:25;3.42;;;2.88;;
72676;SDS011;60755;51.374;10.662;2023-08-30T07:01:52;3.17;;;2.97;;
72676;SDS011;60755;51.374;10.662;2023-08-30T07:04:20;3.03;;;2.83;;
72676;SDS011;60755;51.374;10.662;2023-08-30T07:06:48;2.92;;;2.83;;
72676;SDS011;60755;51.374;10.662;2023-08-30T07:09:15;3.28;;;2.97;;
72676;SDS011;60755;51.374;10.662;2023-08-30T07:11:42;3.00;;;2.75;;
72676;SDS011;60755;51.374;10.662;2023-08-30T07:14:10;2.78;;;2.67;;
72676;SDS011;60755;51.374;10.662;2023-08-30T07:16:37;3.95;;;2.90;;
72676;SDS011;60755;51.374;10.662;2023-08-30T07:19:04;4.05;;;3.25;;
72676;SDS011;60755;51.374;10.662;2023-08-30T07:21:32;4.82;;;3.20;;
72676;SDS011;60755;51.374;10.662;2023-08-30T07:24:03;3.58;;;3.33;;
72676;SDS011;60755;51.374;10.662;2023-08-30T07:26:31;3.50;;;3.20;;
72676;SDS011;60755;51.374;10.662;2023-08-30T07:28:58;3.10;;;2.90;;
72676;SDS011;60755;51.374;10.662;2023-08-30T07:31:25;3.42;;;3.22;;
72676;SDS011;60755;51.374;10.662;2023-08-30T07:33:52;5.78;;;3.25;;
72676;SDS011;60755;51.374;10.662;2023-08-30T07:36:19;3.60;;;3.30;;
72676;SDS011;60755;51.374;10.662;2023-08-30T07:38:46;3.17;;;2.85;;
72676;SDS011;60755;51.374;10.662;2023-08-30T07:41:14;5.22;;;4.10;;
72676;SDS011;60755;51.374;10.662;2023-08-30T07:43:42;2.90;;;2.80;;
72676;SDS011;60755;51.374;10.662;2023-08-30T07:46:09;2.95;;;2.85;;
72676;SDS011;60755;51.374;10.662;2023-08-30T07:48:36;3.50;;;3.13;;
72676;SDS011;60755;51.374;10.662;2023-08-30T07:51:02;3.40;;;3.10;;
72676;SDS011;60755;51.374;10.662;2023-08-30T07:53:29;3.63;;;3.30;;
72676;SDS011;60755;51.374;10.662;2023-08-30T07:55:56;3.22;;;3.03;;
72676;SDS011;60755;51.374;10.662;2023-08-30T07:58:25;3.03;;;2.83;;
72676;SDS011;60755;51.374;10.662;2023-08-30T08:00:52;4.05;;;3.70;;
72676;SDS011;60755;51.374;10.662;2023-08-30T08:03:20;3.85;;;3.65;;
72676;SDS011;60755;51.374;10.662;2023-08-30T08:05:47;4.53;;;4.10;;
72676;SDS011;60755;51.374;10.662;2023-08-30T08:08:17;4.22;;;3.92;;
72676;SDS011;60755;51.374;10.662;2023-08-30T08:10:55;4.13;;;3.85;;
72676;SDS011;60755;51.374;10.662;2023-08-30T08:13:22;4.00;;;3.80;;
72676;SDS011;60755;51.374;10.662;2023-08-30T08:16:00;5.65;;;4.00;;
72676;SDS011;60755;51.374;10.662;2023-08-30T08:18:27;3.90;;;3.70;;
72676;SDS011;60755;51.374;10.662;2023-08-30T08:20:54;4.15;;;3.72;;
72676;SDS011;60755;51.374;10.662;2023-08-30T08:23:21;3.90;;;3.70;;
72676;SDS011;60755;51.374;10.662;2023-08-30T08:25:48;4.68;;;4.28;;
72676;SDS011;60755;51.374;10.662;2023-08-30T08:28:15;4.63;;;4.22;;
72676;SDS011;60755;51.374;10.662;2023-08-30T08:30:43;3.85;;;3.65;;
72676;SDS011;60755;51.374;10.662;2023-08-30T08:33:12;4.30;;;4.00;;
72676;SDS011;60755;51.374;10.662;2023-08-30T08:35:38;4.55;;;4.15;;
72676;SDS011;60755;51.374;10.662;2023-08-30T08:38:05;4.60;;;4.20;;
72676;SDS011;60755;51.374;10.662;2023-08-30T08:40:33;4.75;;;4.35;;
72676;SDS011;60755;51.374;10.662;2023-08-30T08:43:04;4.88;;;4.40;;
72676;SDS011;60755;51.374;10.662;2023-08-30T08:45:32;5.63;;;4.20;;
72676;SDS011;60755;51.374;10.662;2023-08-30T08:48:01;5.07;;;4.57;;
72676;SDS011;60755;51.374;10.662;2023-08-30T08:50:31;5.38;;;4.80;;
72676;SDS011;60755;51.374;10.662;2023-08-30T08:52:59;4.55;;;4.25;;
72676;SDS011;60755;51.374;10.662;2023-08-30T08:55:27;4.60;;;4.20;;
72676;SDS011;60755;51.374;10.662;2023-08-30T08:57:56;4.53;;;4.10;;
72676;SDS011;60755;51.374;10.662;2023-08-30T09:00:25;4.20;;;3.90;;
72676;SDS011;60755;51.374;10.662;2023-08-30T09:02:53;3.60;;;3.40;;
72676;SDS011;60755;51.374;10.662;2023-08-30T09:05:20;3.92;;;3.50;;
72676;SDS011;60755;51.374;10.662;2023-08-30T09:07:49;3.10;;;2.90;;
72676;SDS011;60755;51.374;10.662;2023-08-30T09:10:19;2.92;;;2.70;;
72676;SDS011;60755;51.374;10.662;2023-08-30T09:12:46;3.65;;;3.35;;
72676;SDS011;60755;51.374;10.662;2023-08-30T09:15:14;3.05;;;2.85;;
72676;SDS011;60755;51.374;10.662;2023-08-30T09:17:41;3.17;;;3.00;;
72676;SDS011;60755;51.374;10.662;2023-08-30T09:20:09;3.42;;;3.22;;
72676;SDS011;60755;51.374;10.662;2023-08-30T09:22:38;3.53;;;2.80;;
72676;SDS011;60755;51.374;10.662;2023-08-30T09:25:07;2.70;;;2.55;;
72676;SDS011;60755;51.374;10.662;2023-08-30T09:27:35;2.97;;;2.70;;
72676;SDS011;60755;51.374;10.662;2023-08-30T09:30:04;3.13;;;2.92;;
72676;SDS011;60755;51.374;10.662;2023-08-30T09:32:38;4.15;;;3.55;;
72676;SDS011;60755;51.374;10.662;2023-08-30T09:35:06;4.13;;;3.83;;
72676;SDS011;60755;51.374;10.662;2023-08-30T09:37:34;3.67;;;3.42;;
72676;SDS011;60755;51.374;10.662;2023-08-30T09:40:01;3.17;;;3.05;;
72676;SDS011;60755;51.374;10.662;2023-08-30T09:42:29;3.35;;;3.22;;
72676;SDS011;60755;51.374;10.662;2023-08-30T09:44:57;3.15;;;3.05;;
72676;SDS011;60755;51.374;10.662;2023-08-30T09:47:24;4.40;;;4.00;;
72676;SDS011;60755;51.374;10.662;2023-08-30T09:49:54;3.88;;;3.67;;
72676;SDS011;60755;51.374;10.662;2023-08-30T09:52:23;7.43;;;4.20;;
72676;SDS011;60755;51.374;10.662;2023-08-30T09:54:51;3.90;;;3.70;;
72676;SDS011;60755;51.374;10.662;2023-08-30T09:57:18;3.75;;;3.55;;
72676;SDS011;60755;51.374;10.662;2023-08-30T09:59:49;4.72;;;4.43;;
72676;SDS011;60755;51.374;10.662;2023-08-30T10:02:16;5.10;;;4.70;;
72676;SDS011;60755;51.374;10.662;2023-08-30T10:04:46;6.00;;;5.40;;
72676;SDS011;60755;51.374;10.662;2023-08-30T10:07:15;5.43;;;5.03;;
72676;SDS011;60755;51.374;10.662;2023-08-30T10:09:44;4.88;;;4.47;;
72676;SDS011;60755;51.374;10.662;2023-08-30T10:12:11;5.32;;;5.03;;
72676;SDS011;60755;51.374;10.662;2023-08-30T10:14:39;5.35;;;4.88;;
72676;SDS011;60755;51.374;10.662;2023-08-30T10:17:07;5.15;;;4.65;;
72676;SDS011;60755;51.374;10.662;2023-08-30T10:19:38;4.82;;;4.53;;
72676;SDS011;60755;51.374;10.662;2023-08-30T10:22:08;5.90;;;5.25;;
72676;SDS011;60755;51.374;10.662;2023-08-30T10:24:41;5.20;;;4.90;;
72676;SDS011;60755;51.374;10.662;2023-08-30T10:27:11;5.85;;;5.40;;
72676;SDS011;60755;51.374;10.662;2023-08-30T10:29:40;6.00;;;5.60;;
72676;SDS011;60755;51.374;10.662;2023-08-30T10:32:11;5.65;;;5.25;;
72676;SDS011;60755;51.374;10.662;2023-08-30T10:34:38;5.50;;;5.00;;
72676;SDS011;60755;51.374;10.662;2023-08-30T10:37:06;6.18;;;5.43;;
72676;SDS011;60755;51.374;10.662;2023-08-30T10:39:34;5.70;;;5.20;;
72676;SDS011;60755;51.374;10.662;2023-08-30T10:42:07;5.13;;;4.75;;
72676;SDS011;60755;51.374;10.662;2023-08-30T10:44:37;5.03;;;4.63;;
72676;SDS011;60755;51.374;10.662;2023-08-30T10:47:22;5.13;;;4.82;;
72676;SDS011;60755;51.374;10.662;2023-08-30T10:49:53;5.75;;;5.15;;
72676;SDS011;60755;51.374;10.662;2023-08-30T10:52:20;5.40;;;4.90;;
72676;SDS011;60755;51.374;10.662;2023-08-30T10:54:48;5.45;;;4.85;;
72676;SDS011;60755;51.374;10.662;2023-08-30T10:57:17;5.07;;;4.68;;
72676;SDS011;60755;51.374;10.662;2023-08-30T11:00:03;4.63;;;4.25;;
72676;SDS011;60755;51.374;10.662;2023-08-30T11:02:34;5.43;;;4.97;;
72676;SDS011;60755;51.374;10.662;2023-08-30T11:05:02;4.72;;;4.35;;
72676;SDS011;60755;51.374;10.662;2023-08-30T11:07:32;4.55;;;4.28;;
72676;SDS011;60755;51.374;10.662;2023-08-30T11:09:59;4.75;;;4.40;;
72676;SDS011;60755;51.374;10.662;2023-08-30T11:12:26;4.47;;;4.10;;
72676;SDS011;60755;51.374;10.662;2023-08-30T11:14:55;4.80;;;4.50;;
72676;SDS011;60755;51.374;10.662;2023-08-30T11:17:22;5.63;;;5.22;;
72676;SDS011;60755;51.374;10.662;2023-08-30T11:19:51;4.90;;;4.30;;
72676;SDS011;60755;51.374;10.662;2023-08-30T11:22:24;5.28;;;4.88;;
72676;SDS011;60755;51.374;10.662;2023-08-30T11:24:52;5.13;;;4.82;;
72676;SDS011;60755;51.374;10.662;2023-08-30T11:27:19;4.80;;;4.50;;
72676;SDS011;60755;51.374;10.662;2023-08-30T11:29:46;5.07;;;4.78;;
72676;SDS011;60755;51.374;10.662;2023-08-30T11:32:12;5.00;;;4.70;;
72676;SDS011;60755;51.374;10.662;2023-08-30T11:34:39;6.03;;;5.53;;
72676;SDS011;60755;51.374;10.662;2023-08-30T11:37:08;5.70;;;5.30;;
72676;SDS011;60755;51.374;10.662;2023-08-30T11:39:35;5.47;;;5.00;;
72676;SDS011;60755;51.374;10.662;2023-08-30T11:42:03;5.10;;;4.70;;
72676;SDS011;60755;51.374;10.662;2023-08-30T11:44:31;4.57;;;4.18;;
72676;SDS011;60755;51.374;10.662;2023-08-30T11:46:58;4.80;;;4.60;;
72676;SDS011;60755;51.374;10.662;2023-08-30T11:49:26;5.00;;;4.55;;
72676;SDS011;60755;51.374;10.662;2023-08-30T11:51:54;4.95;;;4.65;;
72676;SDS011;60755;51.374;10.662;2023-08-30T11:54:25;4.85;;;4.50;;
72676;SDS011;60755;51.374;10.662;2023-08-30T11:56:52;4.63;;;4.32;;
72676;SDS011;60755;51.374;10.662;2023-08-30T11:59:19;4.90;;;4.53;;
72676;SDS011;60755;51.374;10.662;2023-08-30T12:01:47;4.47;;;4.10;;
72676;SDS011;60755;51.374;10.662;2023-08-30T12:04:14;4.38;;;4.07;;
72676;SDS011;60755;51.374;10.662;2023-08-30T12:06:44;4.38;;;3.97;;
72676;SDS011;60755;51.374;10.662;2023-08-30T12:09:17;4.18;;;3.97;;
72676;SDS011;60755;51.374;10.662;2023-08-30T12:11:48;4.10;;;3.75;;
72676;SDS011;60755;51.374;10.662;2023-08-30T12:14:16;4.43;;;4.03;;
72676;SDS011;60755;51.374;10.662;2023-08-30T12:16:43;4.72;;;4.43;;
72676;SDS011;60755;51.374;10.662;2023-08-30T12:19:12;4.93;;;4.53;;
72676;SDS011;60755;51.374;10.662;2023-08-30T12:21:42;6.88;;;4.40;;
72676;SDS011;60755;51.374;10.662;2023-08-30T12:24:09;4.55;;;4.25;;
72676;SDS011;60755;51.374;10.662;2023-08-30T12:26:37;4.60;;;4.20;;
72676;SDS011;60755;51.374;10.662;2023-08-30T12:29:06;4.85;;;4.55;;
72676;SDS011;60755;51.374;10.662;2023-08-30T12:31:33;5.57;;;5.18;;
72676;SDS011;60755;51.374;10.662;2023-08-30T12:34:01;5.70;;;5.30;;
72676;SDS011;60755;51.374;10.662;2023-08-30T12:36:28;5.57;;;5.18;;
72676;SDS011;60755;51.374;10.662;2023-08-30T12:38:55;5.35;;;4.93;;
72676;SDS011;60755;51.374;10.662;2023-08-30T12:41:23;5.25;;;4.85;;
72676;SDS011;60755;51.374;10.662;2023-08-30T12:43:50;5.30;;;4.90;;
72676;SDS011;60755;51.374;10.662;2023-08-30T12:46:19;5.03;;;4.72;;
72676;SDS011;60755;51.374;10.662;2023-08-30T12:48:48;5.20;;;4.80;;
72676;SDS011;60755;51.374;10.662;2023-08-30T12:51:15;5.45;;;4.95;;
72676;SDS011;60755;51.374;10.662;2023-08-30T12:53:42;4.85;;;4.55;;
72676;SDS011;60755;51.374;10.662;2023-08-30T12:56:09;5.43;;;4.93;;
72676;SDS011;60755;51.374;10.662;2023-08-30T12:58:37;5.38;;;4.97;;
72676;SDS011;60755;51.374;10.662;2023-08-30T13:01:04;5.60;;;5.20;;
72676;SDS011;60755;51.374;10.662;2023-08-30T13:03:33;5.72;;;5.22;;
72676;SDS011;60755;51.374;10.662;2023-08-30T13:06:00;7.05;;;5.00;;
72676;SDS011;60755;51.374;10.662;2023-08-30T13:08:29;5.00;;;4.65;;
72676;SDS011;60755;51.374;10.662;2023-08-30T13:10:59;5.85;;;5.35;;
72676;SDS011;60755;51.374;10.662;2023-08-30T13:13:26;5.20;;;4.60;;
72676;SDS011;60755;51.374;10.662;2023-08-30T13:15:54;5.15;;;4.55;;
72676;SDS011;60755;51.374;10.662;2023-08-30T13:18:21;5.07;;;4.68;;
72676;SDS011;60755;51.374;10.662;2023-08-30T13:20:50;4.55;;;4.25;;
72676;SDS011;60755;51.374;10.662;2023-08-30T13:23:21;4.60;;;4.30;;
72676;SDS011;60755;51.374;10.662;2023-08-30T13:25:48;5.00;;;4.70;;
72676;SDS011;60755;51.374;10.662;2023-08-30T13:28:16;6.10;;;5.00;;
72676;SDS011;60755;51.374;10.662;2023-08-30T13:30:44;5.25;;;4.80;;
72676;SDS011;60755;51.374;10.662;2023-08-30T13:33:11;5.60;;;4.57;;
72676;SDS011;60755;51.374;10.662;2023-08-30T13:35:38;6.93;;;4.95;;
72676;SDS011;60755;51.374;10.662;2023-08-30T13:38:07;4.97;;;4.68;;
72676;SDS011;60755;51.374;10.662;2023-08-30T13:40:34;5.05;;;4.65;;
72676;SDS011;60755;51.374;10.662;2023-08-30T13:43:02;4.85;;;4.55;;
72676;SDS011;60755;51.374;10.662;2023-08-30T13:45:29;5.30;;;4.90;;
72676;SDS011;60755;51.374;10.662;2023-08-30T13:47:57;5.00;;;4.70;;
72676;SDS011;60755;51.374;10.662;2023-08-30T13:50:25;5.18;;;4.78;;
72676;SDS011;60755;51.374;10.662;2023-08-30T13:52:56;5.15;;;4.75;;
72676;SDS011;60755;51.374;10.662;2023-08-30T13:55:24;5.20;;;4.75;;
72676;SDS011;60755;51.374;10.662;2023-08-30T13:57:52;5.97;;;5.38;;
72676;SDS011;60755;51.374;10.662;2023-08-30T14:00:19;5.40;;;4.90;;
72676;SDS011;60755;51.374;10.662;2023-08-30T14:02:49;5.38;;;5.07;;
72676;SDS011;60755;51.374;10.662;2023-08-30T14:05:17;6.15;;;5.68;;
72676;SDS011;60755;51.374;10.662;2023-08-30T14:07:45;6.90;;;6.22;;
72676;SDS011;60755;51.374;10.662;2023-08-30T14:10:12;6.80;;;6.18;;
72676;SDS011;60755;51.374;10.662;2023-08-30T14:12:45;6.28;;;5.68;;
72676;SDS011;60755;51.374;10.662;2023-08-30T14:15:12;6.18;;;5.63;;
72676;SDS011;60755;51.374;10.662;2023-08-30T14:17:41;5.50;;;4.97;;
72676;SDS011;60755;51.374;10.662;2023-08-30T14:20:08;5.75;;;5.22;;
72676;SDS011;60755;51.374;10.662;2023-08-30T14:22:36;5.38;;;4.97;;
72676;SDS011;60755;51.374;10.662;2023-08-30T14:25:04;5.28;;;4.93;;
72676;SDS011;60755;51.374;10.662;2023-08-30T14:27:31;5.50;;;5.00;;
72676;SDS011;60755;51.374;10.662;2023-08-30T14:30:00;5.57;;;5.18;;
72676;SDS011;60755;51.374;10.662;2023-08-30T14:32:27;5.60;;;5.20;;
72676;SDS011;60755;51.374;10.662;2023-08-30T14:34:54;5.30;;;4.90;;
72676;SDS011;60755;51.374;10.662;2023-08-30T14:37:22;5.07;;;4.75;;
72676;SDS011;60755;51.374;10.662;2023-08-30T14:39:49;5.20;;;4.90;;
72676;SDS011;60755;51.374;10.662;2023-08-30T14:42:19;5.25;;;4.75;;